Terminal Aerodrome Forecast
Issued by NWS

Home | Current Version | Previous Version | Text Only | Print | Product List | Glossary On
Versions: 1 2 3 4 5 6 7 8 9 10 11 12 13 14 15 16 17 18 19 20 21
000
FTUS43 KDVN 142300
TAFBRL
TAF
KBRL 142335Z 1500/1524 15007KT 3SM BR OVC003
     FM150300 15008KT 2SM BR OVC003
     FM151000 16012KT 2SM -RA BR OVC005
     FM151600 14014G21KT 3SM -RADZ BR OVC012=

USA.gov is the U.S. government's official web portal to all federal, state and local government web resources and services.